Time;durP1;ratioP1;P1;durP2;ratioP2;P2;SDS_P1;SDS_P2;PMS_P1;PMS_P2;Temp;Humidity;BMP_temperature;BMP_pressure;BME280_temperature;BME280_humidity;BME280_pressure;Samples;Min_cycle;Max_cycle;Signal;HPM_P1;HPM_P2
2021/05/11 00:02:06;;;;;;;11.27;10.30;;;15.40;92.30;;;;;;5035663;28;20703;-92
2021/05/11 00:04:32;;;;;;;12.17;11.07;;;15.40;91.60;;;;;;5034571;28;20200;-92
2021/05/11 00:06:58;;;;;;;12.23;11.23;;;15.50;91.60;;;;;;5033312;28;20238;-92
2021/05/11 00:09:24;;;;;;;12.00;11.00;;;15.50;92.20;;;;;;5034376;28;20264;-92
2021/05/11 00:11:49;;;;;;;12.03;11.03;;;15.40;92.50;;;;;;5017513;28;20270;-92
2021/05/11 00:14:15;;;;;;;12.50;11.40;;;15.30;92.60;;;;;;5035341;28;20179;-93
2021/05/11 00:16:41;;;;;;;9.80;9.00;;;15.40;92.60;;;;;;5034896;28;20183;-92
2021/05/11 00:19:09;;;;;;;8.83;8.10;;;15.30;90.80;;;;;;5034145;28;20192;-92
2021/05/11 00:21:35;;;;;;;10.90;10.00;;;15.40;89.20;;;;;;5035403;28;20313;-92
2021/05/11 00:24:00;;;;;;;10.43;9.63;;;15.50;89.20;;;;;;5033718;28;20515;-92
2021/05/11 00:26:26;;;;;;;11.93;10.97;;;15.50;88.50;;;;;;5034971;28;20206;-92
2021/05/11 00:28:52;;;;;;;9.20;8.40;;;15.30;91.40;;;;;;5016286;28;20231;-92
2021/05/11 00:31:18;;;;;;;13.17;12.07;;;15.40;89.20;;;;;;5033536;28;20179;-92
2021/05/11 00:33:44;;;;;;;11.27;10.37;;;15.40;91.50;;;;;;5013266;28;20281;-92
2021/05/11 00:36:10;;;;;;;12.23;11.13;;;15.20;91.30;;;;;;5015223;28;20193;-92
2021/05/11 00:38:35;;;;;;;12.10;11.10;;;15.30;91.20;;;;;;5015964;28;20186;-92
2021/05/11 00:41:01;;;;;;;10.93;10.03;;;15.40;90.70;;;;;;5017559;28;20301;-91
2021/05/11 00:43:27;;;;;;;10.13;9.23;;;15.30;91.00;;;;;;5021503;28;20562;-92
2021/05/11 00:45:52;;;;;;;11.67;10.67;;;15.30;90.60;;;;;;4997880;28;20247;-92
2021/05/11 00:48:18;;;;;;;13.37;12.17;;;15.30;90.40;;;;;;5015721;28;20238;-92
2021/05/11 00:50:44;;;;;;;12.93;11.77;;;15.30;91.20;;;;;;5014892;28;20212;-92
2021/05/11 00:53:11;;;;;;;11.60;10.50;;;15.10;92.00;;;;;;5036477;28;20205;-92
2021/05/11 00:55:37;;;;;;;11.47;10.57;;;15.10;91.80;;;;;;5017961;28;20196;-92
2021/05/11 00:58:04;;;;;;;12.77;11.57;;;15.20;90.90;;;;;;5017769;28;20193;-92
2021/05/11 01:00:30;;;;;;;11.30;10.30;;;15.20;90.90;;;;;;5035527;28;20239;-92
2021/05/11 01:02:56;;;;;;;9.97;9.10;;;15.10;91.00;;;;;;5035755;28;20196;-92
2021/05/11 01:05:22;;;;;;;10.47;9.57;;;15.20;90.00;;;;;;5018774;28;20266;-92
2021/05/11 01:07:48;;;;;;;10.73;9.83;;;15.30;89.80;;;;;;5022223;28;20183;-94
2021/05/11 01:10:13;;;;;;;9.83;9.03;;;15.40;89.00;;;;;;5021771;28;20173;-92
2021/05/11 01:12:39;;;;;;;11.10;10.20;;;15.40;88.20;;;;;;5038485;28;20293;-92
2021/05/11 01:15:07;;;;;;;12.70;11.67;;;15.50;87.90;;;;;;5020003;28;20658;-92
2021/05/11 01:17:35;;;;;;;12.07;11.10;;;15.50;88.70;;;;;;5015006;28;20185;-92
2021/05/11 01:20:04;;;;;;;12.03;11.00;;;15.50;88.50;;;;;;5016673;28;20200;-92
2021/05/11 01:22:40;;;;;;;13.07;11.97;;;15.50;88.70;;;;;;5016476;28;20202;-91
2021/05/11 01:25:42;;;;;;;13.57;12.30;;;15.40;88.80;;;;;;5016173;28;20212;-91
2021/05/11 01:44:02;;;;;;;15.80;14.40;;;15.60;88.30;;;;;;5035048;28;20627;-92
2021/05/11 01:49:48;;;;;;;15.43;14.13;;;15.50;88.40;;;;;;4987284;28;20197;-93
2021/05/11 01:54:53;;;;;;;15.97;14.37;;;15.50;89.80;;;;;;5029294;23;20268;-92
2021/05/11 02:24:40;;;;;;;15.13;13.83;;;15.20;88.90;;;;;;4977222;28;20238;-92
2021/05/11 02:27:06;;;;;;;14.00;12.80;;;15.20;88.70;;;;;;4976953;28;20179;-91
2021/05/11 02:29:32;;;;;;;13.37;12.27;;;15.20;89.00;;;;;;4976800;28;20178;-91
2021/05/11 02:31:57;;;;;;;14.13;12.93;;;15.20;88.30;;;;;;4980803;28;20259;-91
2021/05/11 02:34:23;;;;;;;17.10;15.60;;;15.30;88.60;;;;;;4996320;28;20710;-91
2021/05/11 02:36:49;;;;;;;18.47;16.77;;;15.30;89.50;;;;;;4996032;28;20672;-91
2021/05/11 02:39:14;;;;;;;17.47;15.87;;;15.20;91.30;;;;;;4989410;28;20215;-91
2021/05/11 02:41:42;;;;;;;15.73;14.23;;;15.20;91.00;;;;;;4974983;28;20774;-91
2021/05/11 02:44:08;;;;;;;15.07;13.77;;;15.10;91.50;;;;;;4981472;28;20293;-91
2021/05/11 02:46:34;;;;;;;14.30;13.07;;;15.10;91.20;;;;;;4995217;28;20242;-91
2021/05/11 02:49:01;;;;;;;15.70;14.40;;;15.10;90.90;;;;;;4995708;28;20208;-92
2021/05/11 02:51:27;;;;;;;13.90;12.70;;;15.00;92.00;;;;;;4995507;28;20190;-91
2021/05/11 02:53:53;;;;;;;13.70;12.50;;;15.00;90.00;;;;;;4995559;28;20212;-91
2021/05/11 02:56:19;;;;;;;13.93;12.73;;;15.10;89.70;;;;;;4996319;28;20186;-91
2021/05/11 02:58:48;;;;;;;12.93;11.83;;;15.20;89.20;;;;;;4991204;28;20197;-91
2021/05/11 03:01:14;;;;;;;13.13;12.03;;;15.20;89.10;;;;;;4981038;28;20191;-91
2021/05/11 03:03:39;;;;;;;14.27;13.07;;;15.20;89.10;;;;;;4997491;28;20282;-91
2021/05/11 03:06:05;;;;;;;14.93;13.63;;;15.20;89.00;;;;;;5001985;28;20261;-91
2021/05/11 03:08:30;;;;;;;14.93;13.67;;;15.20;89.90;;;;;;4999333;28;20182;-91
2021/05/11 03:10:56;;;;;;;14.90;13.70;;;15.20;89.60;;;;;;4973055;28;20188;-91
2021/05/11 03:13:22;;;;;;;14.13;12.97;;;15.20;89.60;;;;;;4979940;28;20284;-91
2021/05/11 03:15:47;;;;;;;15.80;14.50;;;15.30;89.80;;;;;;4978498;28;20295;-91
2021/05/11 03:18:13;;;;;;;15.40;14.10;;;15.20;90.90;;;;;;4978188;28;20230;-91
2021/05/11 03:20:38;;;;;;;17.90;16.20;;;15.20;91.10;;;;;;4977644;28;20206;-91
2021/05/11 03:23:05;;;;;;;14.70;13.50;;;14.90;92.70;;;;;;4979281;28;20194;-91
2021/05/11 03:25:31;;;;;;;14.53;13.33;;;14.80;92.90;;;;;;4998765;28;20235;-91
2021/05/11 03:27:57;;;;;;;12.10;11.20;;;14.80;92.40;;;;;;4998065;28;20186;-92
2021/05/11 03:30:22;;;;;;;12.80;11.70;;;14.90;90.80;;;;;;5010553;28;20189;-91
2021/05/11 03:32:48;;;;;;;15.93;14.63;;;15.00;90.30;;;;;;5015537;28;20224;-91
2021/05/11 03:35:14;;;;;;;16.50;15.00;;;15.00;92.90;;;;;;4990108;28;20222;-91
2021/05/11 03:37:39;;;;;;;17.03;15.43;;;15.00;93.00;;;;;;4979131;28;20183;-91
2021/05/11 03:40:05;;;;;;;15.80;14.50;;;14.80;93.30;;;;;;4977169;28;20191;-91
2021/05/11 03:42:38;;;;;;;15.73;14.33;;;14.80;92.90;;;;;;4993387;28;20541;-91
2021/05/11 03:45:06;;;;;;;15.47;14.17;;;14.80;92.40;;;;;;4987670;28;20224;-91
2021/05/11 03:47:44;;;;;;;15.23;13.80;;;14.80;92.10;;;;;;4985677;28;20653;-89
2021/05/11 03:50:12;;;;;;;16.00;14.57;;;14.80;91.10;;;;;;4982528;28;20250;-91
2021/05/11 03:52:38;;;;;;;15.13;13.80;;;14.80;91.50;;;;;;4975431;28;20187;-91
2021/05/11 03:55:04;;;;;;;15.00;13.70;;;14.80;91.10;;;;;;4994667;28;20609;-91
2021/05/11 03:57:29;;;;;;;16.03;14.63;;;14.90;90.00;;;;;;4995273;28;20198;-92
2021/05/11 03:59:55;;;;;;;14.40;13.10;;;14.90;90.80;;;;;;4978019;28;20192;-91
2021/05/11 04:02:20;;;;;;;16.30;14.67;;;14.80;90.20;;;;;;4957702;28;20199;-91
2021/05/11 04:04:46;;;;;;;15.93;14.53;;;14.90;90.20;;;;;;4986063;28;20235;-91
2021/05/11 04:07:14;;;;;;;14.60;13.40;;;14.90;91.00;;;;;;4979902;28;20619;-91
2021/05/11 04:09:49;;;;;;;22.60;15.03;;;14.90;91.30;;;;;;4973611;28;20185;-92
2021/05/11 04:17:43;;;;;;;49.50;16.60;;;14.70;93.70;;;;;;4991179;28;20194;-91
2021/05/11 04:20:10;;;;;;;48.40;17.10;;;14.60;94.90;;;;;;4983790;28;20195;-91
2021/05/11 04:22:36;;;;;;;14.67;13.27;;;14.40;95.10;;;;;;4980913;28;20231;-91
2021/05/11 04:25:02;;;;;;;15.83;14.47;;;14.50;93.50;;;;;;4995903;28;20620;-91
2021/05/11 04:27:28;;;;;;;16.23;14.73;;;14.60;93.60;;;;;;4995186;28;20189;-92
2021/05/11 04:29:58;;;;;;;17.33;15.77;;;14.70;93.60;;;;;;4994477;28;20189;-91
2021/05/11 04:32:24;;;;;;;18.60;17.00;;;14.70;92.80;;;;;;4996054;28;20160;-91
2021/05/11 04:34:50;;;;;;;17.13;15.60;;;14.70;93.00;;;;;;4993389;28;20706;-91
2021/05/11 04:37:15;;;;;;;17.77;16.07;;;14.70;93.00;;;;;;4995390;28;20176;-92
2021/05/11 04:39:41;;;;;;;18.57;16.80;;;14.70;93.40;;;;;;4977914;28;20185;-92
2021/05/11 04:42:06;;;;;;;15.13;13.83;;;14.70;92.60;;;;;;4994458;28;20184;-91
2021/05/11 04:44:32;;;;;;;18.03;16.33;;;14.80;92.10;;;;;;4994695;28;20194;-91
2021/05/11 04:47:12;;;;;;;16.13;14.73;;;14.80;93.30;;;;;;4995429;28;20547;-91
2021/05/11 04:49:38;;;;;;;13.63;12.53;;;14.70;93.20;;;;;;4994335;28;20161;-91
2021/05/11 04:52:05;;;;;;;16.73;15.33;;;14.70;92.10;;;;;;5000115;28;20178;-91
2021/05/11 04:54:30;;;;;;;18.27;16.67;;;14.80;92.30;;;;;;4990881;28;20210;-91
2021/05/11 04:56:56;;;;;;;16.30;14.87;;;14.80;93.40;;;;;;4993919;28;20577;-91
2021/05/11 04:59:21;;;;;;;15.67;14.37;;;14.80;92.80;;;;;;4970196;28;20225;-92
2021/05/11 05:01:49;;;;;;;17.30;15.70;;;14.80;92.80;;;;;;4975714;28;20681;-91
2021/05/11 05:04:15;;;;;;;17.50;15.90;;;14.80;93.00;;;;;;4977188;28;20203;-92
2021/05/11 05:06:41;;;;;;;16.53;15.13;;;14.80;93.60;;;;;;4975809;28;20257;-92
2021/05/11 05:09:07;;;;;;;15.30;14.00;;;14.70;93.70;;;;;;4986156;28;20190;-92
2021/05/11 05:11:34;;;;;;;14.97;13.67;;;14.70;94.10;;;;;;4994110;28;20191;-92
2021/05/11 05:14:00;;;;;;;14.87;13.57;;;14.70;93.80;;;;;;4984688;28;20692;-91
2021/05/11 05:16:26;;;;;;;14.47;13.27;;;14.80;92.60;;;;;;4974995;28;20565;-92
2021/05/11 05:18:51;;;;;;;14.67;13.47;;;14.80;91.70;;;;;;4975624;28;20205;-91
2021/05/11 05:21:18;;;;;;;16.30;14.90;;;14.80;91.90;;;;;;4972992;28;20194;-91
2021/05/11 05:24:14;;;;;;;13.90;12.70;;;14.90;92.70;;;;;;4987315;28;20238;-91
2021/05/11 05:26:40;;;;;;;14.27;13.03;;;14.90;92.00;;;;;;4996103;28;20210;-91
2021/05/11 05:29:05;;;;;;;14.50;13.27;;;14.90;91.90;;;;;;4993414;28;20235;-92
2021/05/11 05:31:31;;;;;;;14.13;13.00;;;14.90;91.60;;;;;;4977070;28;20187;-92
2021/05/11 05:33:57;;;;;;;14.93;13.63;;;15.00;91.50;;;;;;4993819;28;20206;-91
2021/05/11 05:36:23;;;;;;;19.17;13.90;;;14.90;93.00;;;;;;4992377;28;20248;-92
2021/05/11 05:38:49;;;;;;;16.37;14.77;;;14.90;93.40;;;;;;4994046;28;20188;-92
2021/05/11 05:41:23;;;;;;;14.20;12.90;;;14.80;94.00;;;;;;4993577;28;20190;-93
2021/05/11 05:43:49;;;;;;;15.53;14.13;;;14.80;93.90;;;;;;4994594;28;20155;-92
2021/05/11 05:46:15;;;;;;;15.33;14.03;;;14.80;94.50;;;;;;4997093;28;20832;-92
2021/05/11 05:48:40;;;;;;;15.53;14.23;;;14.70;95.40;;;;;;4995687;28;20236;-92
2021/05/11 05:51:06;;;;;;;15.03;13.67;;;14.70;95.30;;;;;;4995789;28;20202;-92
2021/05/11 05:53:36;;;;;;;14.90;13.60;;;14.80;95.10;;;;;;4997028;28;20186;-90
2021/05/11 05:56:21;;;;;;;13.83;12.63;;;14.80;94.90;;;;;;4997162;28;20261;-90
2021/05/11 05:59:15;;;;;;;;;;;;;;;;;;;;;
2021/05/11 06:02:18;;;;;;;;;;;;;;;;;;;;;
2021/05/11 06:04:44;;;;;;;11.83;10.83;;;14.80;95.00;;;;;;4977046;28;20325;-92
2021/05/11 06:07:12;;;;;;;12.30;11.20;;;14.90;94.00;;;;;;4978158;28;20198;-91
2021/05/11 06:09:39;;;;;;;11.50;10.50;;;14.90;93.20;;;;;;4975734;28;20665;-90
2021/05/11 06:12:14;;;;;;;11.93;10.83;;;14.90;93.40;;;;;;4976392;28;20182;-92
2021/05/11 06:17:18;;;;;;;10.03;9.20;;;14.80;93.80;;;;;;4978662;28;21379;-92
2021/05/11 06:19:50;;;;;;;9.80;9.07;;;14.90;93.10;;;;;;4990307;28;20249;-92
2021/05/11 06:22:16;;;;;;;9.67;8.77;;;15.00;92.50;;;;;;4995468;28;20260;-92
2021/05/11 06:24:43;;;;;;;10.23;9.33;;;15.00;92.60;;;;;;4995436;28;20201;-91
2021/05/11 06:27:10;;;;;;;8.93;8.23;;;15.00;93.20;;;;;;4995388;28;20252;-91
2021/05/11 06:29:38;;;;;;;20.90;19.40;;;15.00;92.90;;;;;;4995905;28;20176;-91
2021/05/11 06:32:05;;;;;;;12.03;11.03;;;15.10;93.30;;;;;;4997140;28;20225;-90
2021/05/11 06:34:31;;;;;;;12.70;11.70;;;15.00;94.10;;;;;;4996784;28;20686;-90
2021/05/11 06:37:04;;;;;;;14.87;13.67;;;14.90;95.30;;;;;;4984412;28;20191;-91
2021/05/11 06:39:29;;;;;;;14.83;13.57;;;14.80;95.50;;;;;;4983133;28;20266;-89
2021/05/11 06:41:57;;;;;;;10.50;9.60;;;14.70;96.00;;;;;;4996227;28;20649;-90
2021/05/11 06:54:42;;;;;;;10.63;9.63;;;14.80;95.90;;;;;;4978369;28;20225;-92
2021/05/11 06:57:08;;;;;;;10.17;9.37;;;14.90;96.10;;;;;;4980538;28;20337;-91
2021/05/11 06:59:34;;;;;;;9.67;8.87;;;14.90;95.90;;;;;;4991623;28;20285;-91
2021/05/11 07:02:02;;;;;;;9.87;8.97;;;14.90;95.10;;;;;;4986556;28;20272;-91
2021/05/11 07:04:28;;;;;;;11.00;10.10;;;15.00;95.20;;;;;;4986801;28;20199;-90
2021/05/11 07:06:54;;;;;;;10.30;9.40;;;15.10;95.30;;;;;;4983995;28;20212;-92
2021/05/11 07:14:34;;;;;;;37.47;33.97;;;15.00;95.90;;;;;;5009087;28;20206;-92
2021/05/11 07:16:59;;;;;;;15.03;13.73;;;15.00;96.10;;;;;;5008246;28;20662;-90
2021/05/11 07:19:25;;;;;;;22.50;20.90;;;15.00;96.30;;;;;;4995573;28;20190;-91
2021/05/11 07:21:51;;;;;;;16.80;15.40;;;15.10;95.90;;;;;;4998944;28;20653;-91
2021/05/11 07:24:19;;;;;;;11.70;10.80;;;15.10;95.70;;;;;;4996724;28;20803;-91
2021/05/11 07:27:11;;;;;;;12.83;11.93;;;15.10;95.00;;;;;;4996412;28;20230;-91
2021/05/11 07:32:03;;;;;;;13.97;12.97;;;15.10;95.90;;;;;;5001915;28;20159;-93
2021/05/11 07:34:29;;;;;;;37.87;35.70;;;14.90;96.70;;;;;;4985380;28;20521;-91
2021/05/11 07:36:55;;;;;;;14.63;13.63;;;14.90;97.00;;;;;;5004015;28;20193;-92
2021/05/11 07:39:23;;;;;;;9.80;9.00;;;15.00;96.00;;;;;;5000658;28;20193;-91
2021/05/11 07:41:49;;;;;;;10.67;9.83;;;15.20;96.40;;;;;;4976346;28;20191;-91
2021/05/11 07:44:14;;;;;;;10.37;9.47;;;15.30;96.10;;;;;;4997020;28;20213;-92
2021/05/11 07:46:47;;;;;;;10.60;9.70;;;15.30;97.60;;;;;;4995123;28;20214;-92
2021/05/11 07:56:28;;;;;;;10.63;9.67;;;15.60;96.00;;;;;;5002448;28;20193;-92
2021/05/11 08:16:12;;;;;;;3.10;2.90;;;16.70;85.60;;;;;;5023756;23;20240;-91
2021/05/11 08:18:47;;;;;;;2.63;2.43;;;16.60;85.50;;;;;;4977109;28;20205;-90
2021/05/11 08:29:27;;;;;;;4.00;3.70;;;16.40;88.20;;;;;;4981631;28;20593;-90
2021/05/11 08:31:52;;;;;;;4.37;3.97;;;16.30;87.50;;;;;;4969059;28;20179;-90
2021/05/11 08:34:18;;;;;;;4.00;3.70;;;16.40;88.20;;;;;;4962839;28;20885;-89
2021/05/11 08:36:44;;;;;;;4.30;3.90;;;16.40;87.60;;;;;;4963072;28;20218;-87
2021/05/11 08:39:09;;;;;;;4.40;4.10;;;16.40;88.60;;;;;;4960210;28;20219;-88
2021/05/11 08:41:35;;;;;;;4.10;3.70;;;16.10;88.30;;;;;;4964069;28;20567;-89
2021/05/11 08:44:03;;;;;;;3.83;3.50;;;16.00;88.50;;;;;;4964306;28;20216;-88
2021/05/11 08:46:28;;;;;;;4.30;4.00;;;16.10;88.40;;;;;;4971432;28;20214;-89
2021/05/11 08:48:54;;;;;;;4.53;4.13;;;16.10;87.10;;;;;;4965705;28;20212;-89
2021/05/11 09:04:50;;;;;;;4.63;4.33;;;16.20;88.80;;;;;;4963259;28;21441;-89
2021/05/11 09:26:57;;;;;;;3.53;3.27;;;16.70;85.20;;;;;;4975874;28;20227;-88
2021/05/11 09:29:53;;;;;;;3.53;3.33;;;16.70;86.60;;;;;;4964244;28;20206;-90
2021/05/11 10:41:27;;;;;;;3.97;3.57;;;16.70;84.00;;;;;;4968537;28;20211;-89
2021/05/11 10:46:28;;;;;;;3.03;2.73;;;16.60;85.50;;;;;;4964177;28;20286;-88
2021/05/11 10:48:53;;;;;;;3.93;3.63;;;16.80;85.40;;;;;;4969961;28;20241;-88
2021/05/11 10:51:22;;;;;;;3.23;3.03;;;16.70;85.20;;;;;;4971329;28;20667;-88
2021/05/11 10:54:04;;;;;;;3.33;3.03;;;16.70;85.60;;;;;;4969897;28;20259;-88
2021/05/11 10:56:37;;;;;;;3.90;3.40;;;16.70;85.20;;;;;;4963739;28;20362;-87
2021/05/11 11:01:59;;;;;;;3.40;3.20;;;16.70;84.90;;;;;;4962957;28;20833;-87
2021/05/11 11:04:32;;;;;;;3.27;3.07;;;16.60;84.90;;;;;;4972566;28;20832;-88
2021/05/11 11:06:58;;;;;;;3.60;3.30;;;16.70;85.30;;;;;;4966757;28;20214;-88
2021/05/11 11:09:30;;;;;;;3.67;3.47;;;16.70;85.20;;;;;;4961335;28;20212;-87
2021/05/11 11:11:57;;;;;;;6.10;3.60;;;16.70;84.70;;;;;;4975157;28;20216;-87
2021/05/11 11:14:24;;;;;;;6.23;5.67;;;16.70;84.90;;;;;;4974227;28;20209;-88
2021/05/11 11:17:00;;;;;;;5.00;4.60;;;16.60;85.50;;;;;;4975094;28;20194;-88
2021/05/11 11:19:26;;;;;;;5.10;4.60;;;16.60;84.60;;;;;;4980234;28;20258;-88
2021/05/11 11:24:31;;;;;;;4.40;3.93;;;16.40;84.30;;;;;;4993038;28;20225;-88
2021/05/11 11:26:58;;;;;;;4.70;3.30;;;16.30;85.50;;;;;;4975467;28;20207;-88
2021/05/11 11:29:25;;;;;;;4.00;3.60;;;16.20;86.90;;;;;;4983636;28;20207;-88
2021/05/11 11:31:51;;;;;;;3.63;2.70;;;16.10;87.00;;;;;;4977287;28;20196;-88
2021/05/11 11:34:22;;;;;;;2.70;2.50;;;16.00;87.60;;;;;;4984472;28;20206;-88
2021/05/11 11:36:59;;;;;;;3.37;3.10;;;15.90;88.00;;;;;;4981455;28;20230;-88
2021/05/11 11:39:36;;;;;;;3.40;2.60;;;15.80;88.30;;;;;;4984372;28;20803;-87
2021/05/11 11:42:05;;;;;;;2.83;2.63;;;15.70;89.00;;;;;;4991119;28;20187;-87
2021/05/11 11:44:35;;;;;;;2.90;2.70;;;15.70;88.00;;;;;;4985871;28;20217;-87
2021/05/11 11:47:17;;;;;;;2.93;2.73;;;15.60;88.40;;;;;;4996285;28;20249;-87
2021/05/11 11:49:47;;;;;;;3.27;3.00;;;15.70;89.40;;;;;;4982646;28;20203;-88
2021/05/11 11:52:38;;;;;;;2.60;2.40;;;15.70;88.70;;;;;;4997266;28;20192;-87
2021/05/11 11:57:45;;;;;;;4.47;4.07;;;15.80;88.40;;;;;;4979758;28;20182;-87
2021/05/11 12:00:16;;;;;;;2.80;2.60;;;15.70;89.00;;;;;;4988973;28;20302;-88
2021/05/11 12:02:59;;;;;;;2.90;2.70;;;15.80;89.40;;;;;;4982117;28;20234;-88
2021/05/11 12:05:35;;;;;;;4.00;3.70;;;15.90;88.30;;;;;;4988169;28;20677;-87
2021/05/11 12:10:43;;;;;;;2.40;2.20;;;15.80;88.00;;;;;;4985879;28;20238;-87
2021/05/11 12:13:10;;;;;;;4.03;3.70;;;15.80;88.60;;;;;;4985883;28;20191;-87
2021/05/11 12:15:37;;;;;;;7.63;7.03;;;15.90;87.90;;;;;;4980323;28;20217;-87
2021/05/11 12:20:40;;;;;;;10.50;9.70;;;15.90;87.10;;;;;;4971755;28;20316;-88
2021/05/11 12:23:14;;;;;;;3.30;3.00;;;15.90;87.50;;;;;;4972195;28;20215;-88
2021/05/11 12:25:43;;;;;;;2.07;1.90;;;15.90;87.60;;;;;;4971123;28;20261;-88
2021/05/11 12:28:09;;;;;;;2.23;2.07;;;15.90;87.10;;;;;;4971734;28;20203;-88
2021/05/11 12:30:42;;;;;;;2.60;2.40;;;16.00;87.00;;;;;;4971880;28;20286;-88
2021/05/11 12:33:13;;;;;;;2.10;2.00;;;15.90;87.10;;;;;;4970784;28;20246;-87
2021/05/11 12:35:41;;;;;;;1.70;1.60;;;16.00;87.10;;;;;;4969905;28;20194;-88
2021/05/11 12:38:17;;;;;;;2.30;1.80;;;16.00;86.70;;;;;;4971428;28;20189;-87
2021/05/11 12:43:50;;;;;;;1.83;1.70;;;15.90;87.00;;;;;;4970495;28;20185;-88
2021/05/11 12:46:38;;;;;;;1.87;1.77;;;15.80;87.40;;;;;;4974221;28;20237;-88
2021/05/11 12:49:05;;;;;;;2.00;1.90;;;15.80;87.10;;;;;;4979234;28;20202;-87
2021/05/11 12:51:46;;;;;;;1.80;1.70;;;15.90;88.30;;;;;;4977676;28;20219;-88
2021/05/11 12:54:29;;;;;;;2.70;1.97;;;16.10;88.40;;;;;;4969148;28;20190;-88
2021/05/11 13:03:22;;;;;;;1.90;1.80;;;15.70;89.10;;;;;;4987899;28;20210;-88
2021/05/11 13:16:29;;;;;;;3.03;1.67;;;15.40;89.30;;;;;;4970122;28;20272;-88
2021/05/11 13:19:51;;;;;;;2.73;1.63;;;15.40;90.10;;;;;;4965088;28;20791;-88
2021/05/11 13:27:34;;;;;;;5.43;2.60;;;15.70;90.50;;;;;;4970040;28;20201;-88
2021/05/11 13:35:00;;;;;;;2.33;1.93;;;15.80;89.60;;;;;;4969449;28;20183;-90
2021/05/11 13:37:28;;;;;;;2.50;2.20;;;15.60;91.40;;;;;;4967610;28;20655;-90
2021/05/11 13:39:58;;;;;;;2.33;2.10;;;15.40;92.70;;;;;;4970399;28;20238;-90
2021/05/11 13:42:24;;;;;;;2.33;2.13;;;15.30;94.90;;;;;;4968885;28;20235;-90
2021/05/11 13:44:50;;;;;;;2.30;2.10;;;15.20;94.50;;;;;;4976916;28;20191;-90
2021/05/11 13:47:16;;;;;;;2.97;2.07;;;15.10;96.30;;;;;;4978828;28;20222;-90
2021/05/11 13:49:42;;;;;;;8.13;2.63;;;15.00;95.30;;;;;;4978407;28;20227;-90
2021/05/11 13:52:07;;;;;;;2.03;1.87;;;15.00;95.60;;;;;;4974247;28;20202;-90
2021/05/11 13:54:33;;;;;;;4.10;2.70;;;15.00;96.30;;;;;;4975051;28;20187;-90
2021/05/11 14:04:34;;;;;;;13.20;3.90;;;15.10;96.20;;;;;;4974140;28;20191;-90
2021/05/11 14:07:00;;;;;;;3.60;2.70;;;15.20;96.60;;;;;;4970781;28;20211;-90
2021/05/11 14:09:26;;;;;;;25.07;5.13;;;15.20;96.50;;;;;;4970709;28;20586;-90
2021/05/11 14:11:52;;;;;;;3.60;2.70;;;15.10;97.80;;;;;;4975000;28;20211;-90
2021/05/11 14:14:17;;;;;;;3.63;3.03;;;15.10;97.80;;;;;;4979022;28;20196;-91
2021/05/11 14:16:45;;;;;;;3.13;2.93;;;15.00;98.40;;;;;;4951736;28;20206;-91
2021/05/11 14:19:12;;;;;;;4.40;2.67;;;15.10;98.40;;;;;;4972636;28;20206;-90
2021/05/11 14:21:38;;;;;;;3.60;3.00;;;15.20;97.20;;;;;;4970867;28;20220;-91
2021/05/11 14:24:04;;;;;;;4.93;3.00;;;15.30;96.40;;;;;;4971304;28;20192;-91
2021/05/11 14:26:31;;;;;;;3.10;2.90;;;15.20;97.20;;;;;;4974785;28;20207;-90
2021/05/11 14:28:57;;;;;;;4.43;3.20;;;15.20;96.70;;;;;;4972611;28;20769;-90
2021/05/11 14:31:24;;;;;;;3.30;3.00;;;15.10;96.80;;;;;;4972791;28;20200;-90
2021/05/11 14:33:50;;;;;;;3.67;2.80;;;15.20;97.00;;;;;;4971791;28;20219;-90
2021/05/11 14:36:16;;;;;;;2.63;2.43;;;15.10;97.00;;;;;;4974157;28;20194;-90
2021/05/11 14:38:41;;;;;;;2.40;2.30;;;15.20;95.90;;;;;;4970593;28;20373;-90
2021/05/11 14:41:08;;;;;;;4.90;2.60;;;15.10;96.40;;;;;;4971867;28;20202;-91
2021/05/11 14:43:35;;;;;;;2.80;2.60;;;15.10;95.80;;;;;;4972941;28;20200;-91
2021/05/11 14:46:02;;;;;;;3.13;2.53;;;15.10;96.40;;;;;;4972905;28;20211;-90
2021/05/11 14:48:30;;;;;;;2.93;2.73;;;14.90;98.10;;;;;;4958843;28;20198;-91
2021/05/11 14:50:56;;;;;;;3.37;3.03;;;15.00;96.10;;;;;;4970602;28;20754;-90
2021/05/11 14:53:22;;;;;;;3.47;3.07;;;14.80;97.70;;;;;;4975037;28;20195;-90
2021/05/11 14:55:47;;;;;;;9.20;8.40;;;14.80;98.50;;;;;;4974125;28;20192;-91
2021/05/11 14:58:13;;;;;;;6.13;5.63;;;14.90;97.50;;;;;;4979441;28;20194;-90
2021/05/11 15:00:39;;;;;;;3.53;2.97;;;15.00;97.10;;;;;;4983147;28;20282;-90
2021/05/11 15:03:05;;;;;;;3.53;3.30;;;15.10;97.20;;;;;;4982379;28;20564;-90
2021/05/11 15:05:31;;;;;;;6.33;5.83;;;15.00;97.90;;;;;;4974243;28;20329;-91
2021/05/11 15:07:57;;;;;;;8.10;7.47;;;15.00;97.20;;;;;;4984835;28;20184;-90
2021/05/11 15:10:22;;;;;;;7.03;6.33;;;15.00;97.90;;;;;;4992884;28;20253;-90
2021/05/11 15:12:50;;;;;;;2.43;2.33;;;15.00;97.20;;;;;;4981964;28;20197;-90
2021/05/11 15:15:19;;;;;;;2.57;2.33;;;14.90;96.60;;;;;;4975048;28;20317;-89
2021/05/11 15:20:13;;;;;;;2.60;2.40;;;14.90;97.70;;;;;;4974921;28;20304;-90
2021/05/11 15:22:38;;;;;;;2.27;2.07;;;14.90;96.00;;;;;;4976232;28;20195;-88
2021/05/11 15:25:05;;;;;;;3.43;2.60;;;14.90;95.60;;;;;;4973833;28;20210;-88
2021/05/11 15:27:31;;;;;;;3.47;2.83;;;14.90;96.30;;;;;;4974140;28;20243;-88
2021/05/11 15:29:58;;;;;;;2.90;2.50;;;14.90;97.20;;;;;;4981915;28;20286;-90
2021/05/11 15:32:53;;;;;;;2.97;2.67;;;14.80;97.60;;;;;;4980623;28;20187;-90
2021/05/11 15:35:21;;;;;;;2.70;2.50;;;14.70;98.20;;;;;;4976553;28;20302;-90
2021/05/11 15:37:52;;;;;;;3.40;3.13;;;14.60;99.50;;;;;;4976316;28;20196;-91
2021/05/11 15:40:19;;;;;;;2.80;2.60;;;14.60;99.20;;;;;;4977148;28;20217;-90
2021/05/11 15:42:45;;;;;;;3.00;2.60;;;14.60;98.80;;;;;;4977523;28;21062;-90
2021/05/11 15:45:12;;;;;;;3.23;2.17;;;14.40;99.20;;;;;;4987721;28;20222;-91
2021/05/11 15:47:38;;;;;;;2.87;2.67;;;14.50;98.40;;;;;;4972700;28;20226;-90
2021/05/11 15:50:05;;;;;;;2.40;2.20;;;14.50;98.60;;;;;;4986706;28;20226;-90
2021/05/11 15:52:31;;;;;;;4.27;3.97;;;14.50;98.90;;;;;;4988870;28;20213;-90
2021/05/11 15:54:57;;;;;;;2.40;2.20;;;14.50;99.30;;;;;;4980366;28;20246;-90
2021/05/11 15:57:23;;;;;;;3.70;2.30;;;14.60;98.80;;;;;;4986737;28;20190;-90
2021/05/11 15:59:49;;;;;;;2.40;2.20;;;14.50;99.10;;;;;;4980302;28;20240;-91
2021/05/11 16:02:14;;;;;;;2.53;2.33;;;14.60;98.30;;;;;;4986418;28;20190;-91
2021/05/11 16:04:40;;;;;;;3.90;2.10;;;14.50;98.50;;;;;;4989820;28;20202;-91
2021/05/11 16:07:06;;;;;;;4.60;4.20;;;14.50;98.70;;;;;;4978559;28;20207;-91
2021/05/11 16:09:31;;;;;;;3.10;2.33;;;14.40;99.50;;;;;;4986675;28;20681;-91
2021/05/11 16:11:57;;;;;;;2.70;2.50;;;14.50;99.90;;;;;;4981653;28;20191;-91
2021/05/11 16:14:23;;;;;;;3.43;2.90;;;14.40;99.90;;;;;;4980057;28;20198;-91
2021/05/11 16:16:49;;;;;;;2.90;2.70;;;14.30;99.90;;;;;;4978935;28;20204;-90
2021/05/11 16:19:15;;;;;;;3.23;2.97;;;14.40;99.90;;;;;;4993662;28;20206;-92
2021/05/11 16:21:41;;;;;;;2.67;2.47;;;14.30;99.90;;;;;;4991983;28;20238;-92
2021/05/11 16:24:07;;;;;;;3.40;3.10;;;14.30;99.90;;;;;;4980161;28;20199;-92
2021/05/11 16:26:32;;;;;;;3.53;3.27;;;14.40;99.90;;;;;;4978475;28;20238;-90
2021/05/11 16:28:58;;;;;;;3.50;3.17;;;14.40;99.90;;;;;;5002538;28;20199;-92
2021/05/11 16:31:24;;;;;;;3.53;3.23;;;14.40;99.90;;;;;;4999986;28;20222;-90
2021/05/11 16:33:50;;;;;;;3.10;2.80;;;14.40;99.90;;;;;;4989663;28;20187;-92
2021/05/11 16:36:16;;;;;;;3.80;3.50;;;14.40;99.90;;;;;;4982692;28;20218;-91
2021/05/11 16:38:42;;;;;;;4.03;3.57;;;14.30;99.90;;;;;;4990008;28;20583;-91
2021/05/11 16:41:08;;;;;;;3.83;3.53;;;14.30;99.90;;;;;;4993745;28;20201;-91
2021/05/11 16:43:34;;;;;;;3.97;3.60;;;14.30;99.90;;;;;;4997520;28;20198;-91
2021/05/11 16:46:04;;;;;;;3.40;3.10;;;14.30;99.90;;;;;;4987192;28;20890;-92
2021/05/11 16:48:31;;;;;;;3.50;3.20;;;14.30;99.90;;;;;;4979668;28;20199;-92
2021/05/11 16:50:58;;;;;;;4.47;3.47;;;14.30;99.90;;;;;;4993953;28;20222;-90
2021/05/11 16:53:23;;;;;;;3.30;3.10;;;14.30;99.30;;;;;;4996284;28;20193;-92
2021/05/11 16:55:49;;;;;;;3.20;3.00;;;14.30;99.90;;;;;;4999486;28;20185;-91
2021/05/11 16:58:15;;;;;;;3.23;2.93;;;14.30;99.90;;;;;;5000821;28;20185;-92
2021/05/11 17:00:42;;;;;;;3.10;2.90;;;14.20;99.90;;;;;;4973671;28;20215;-92
2021/05/11 17:03:08;;;;;;;3.20;2.97;;;14.20;99.90;;;;;;4975694;28;20195;-92
2021/05/11 17:05:34;;;;;;;3.30;3.10;;;14.20;99.80;;;;;;4977807;28;20229;-91
2021/05/11 17:08:01;;;;;;;3.40;3.10;;;14.20;99.90;;;;;;4979836;28;20192;-91
2021/05/11 17:10:28;;;;;;;9.37;3.27;;;14.10;99.90;;;;;;4979995;28;20218;-91
2021/05/11 17:12:56;;;;;;;3.27;3.00;;;14.10;99.90;;;;;;4982428;28;20191;-89